Time,TemperatureF,DewpointF,PressureIn,WindDirection,WindDirectionDegrees,WindSpeedMPH,WindSpeedGustMPH,Humidity,HourlyPrecipIn,Conditions,Clouds,dailyrainin,SoftwareType,DateUTC
2013-03-13 00:00:00,54.2,48.5,29.99,NNW,338,0.0,0.0,81,0.00,,,0.00,Wunderground v.1.15,2013-03-13 04:00:00,
2013-03-13 00:05:00,53.9,48.2,29.99,NNW,338,0.0,0.0,81,0.00,,,0.00,Wunderground v.1.15,2013-03-13 04:05:00,
2013-03-13 00:15:00,53.5,47.8,29.99,NNW,338,0.0,0.0,81,0.00,,,0.00,Wunderground v.1.15,2013-03-13 04:15:00,
2013-03-13 00:20:00,53.2,47.5,29.99,NNW,338,0.0,0.0,81,0.00,,,0.00,Wunderground v.1.15,2013-03-13 04:20:00,
2013-03-13 00:25:00,52.9,47.2,29.99,NNW,338,0.0,0.0,81,0.00,,,0.00,Wunderground v.1.15,2013-03-13 04:25:00,
2013-03-13 00:30:00,52.8,47.1,29.99,NNW,338,0.0,0.0,81,0.00,,,0.00,Wunderground v.1.15,2013-03-13 04:30:00,
2013-03-13 00:40:00,52.5,46.8,29.99,NNW,338,0.0,0.0,81,0.00,,,0.00,Wunderground v.1.15,2013-03-13 04:40:00,
2013-03-13 00:50:00,52.5,46.8,29.99,NNW,338,0.0,0.0,81,0.00,,,0.00,Wunderground v.1.15,2013-03-13 04:50:00,
2013-03-13 01:00:00,52.3,46.3,29.99,NNW,338,0.0,0.0,80,0.00,,,0.00,Wunderground v.1.15,2013-03-13 05:00:00,
2013-03-13 01:05:00,52.3,46.3,29.99,NNW,338,0.0,0.0,80,0.00,,,0.00,Wunderground v.1.15,2013-03-13 05:05:00,
2013-03-13 01:15:00,52.2,46.2,29.99,NNW,338,0.0,0.0,80,0.00,,,0.00,Wunderground v.1.15,2013-03-13 05:15:00,
2013-03-13 01:25:00,52.0,45.7,29.99,NNW,338,0.0,0.0,79,0.00,,,0.00,Wunderground v.1.15,2013-03-13 05:25:00,
2013-03-13 01:35:00,51.7,45.4,30.00,NNW,338,0.0,0.0,79,0.00,,,0.00,Wunderground v.1.15,2013-03-13 05:35:00,
2013-03-13 01:45:00,51.7,45.4,30.00,NNW,338,0.0,0.0,79,0.00,,,0.00,Wunderground v.1.15,2013-03-13 05:45:00,
2013-03-13 01:55:00,51.7,45.1,30.00,NNW,338,0.0,0.0,78,0.00,,,0.00,Wunderground v.1.15,2013-03-13 05:55:00,
2013-03-13 02:00:00,51.7,45.1,30.00,NNW,338,0.0,0.0,78,0.00,,,0.00,Wunderground v.1.15,2013-03-13 06:00:00,
2013-03-13 02:05:00,51.7,45.1,30.00,NNW,338,0.0,0.0,78,0.00,,,0.00,Wunderground v.1.15,2013-03-13 06:05:00,
2013-03-13 02:15:00,51.6,45.0,30.00,NNW,338,0.0,0.0,78,0.00,,,0.00,Wunderground v.1.15,2013-03-13 06:15:00,
2013-03-13 02:25:00,51.4,44.8,30.00,NNW,338,0.0,0.0,78,0.00,,,0.00,Wunderground v.1.15,2013-03-13 06:25:00,
2013-03-13 02:35:00,51.1,44.8,30.00,NNW,338,0.0,0.0,79,0.00,,,0.00,Wunderground v.1.15,2013-03-13 06:35:00,
2013-03-13 02:45:00,51.0,44.7,30.00,NNW,338,0.0,0.0,79,0.00,,,0.00,Wunderground v.1.15,2013-03-13 06:45:00,
2013-03-13 02:55:00,50.8,44.9,30.00,NNW,338,0.0,0.0,80,0.00,,,0.00,Wunderground v.1.15,2013-03-13 06:55:00,
2013-03-13 03:05:00,50.7,44.4,29.98,NNW,338,0.0,1.0,79,0.00,,,0.00,Wunderground v.1.15,2013-03-13 07:05:00,
2013-03-13 03:15:00,50.7,44.4,29.98,NNW,338,0.0,1.0,79,0.00,,,0.00,Wunderground v.1.15,2013-03-13 07:15:00,
2013-03-13 03:20:00,50.5,43.9,29.98,NNW,338,0.0,1.0,78,0.00,,,0.00,Wunderground v.1.15,2013-03-13 07:20:00,
2013-03-13 03:25:00,50.5,43.9,29.98,NNW,338,0.0,1.0,78,0.00,,,0.00,Wunderground v.1.15,2013-03-13 07:25:00,
2013-03-13 03:35:00,51.0,43.7,29.99,NNW,338,0.0,1.0,76,0.00,,,0.00,Wunderground v.1.15,2013-03-13 07:35:00,
2013-03-13 03:40:00,51.0,43.4,29.99,NNW,338,0.0,1.0,75,0.00,,,0.00,Wunderground v.1.15,2013-03-13 07:40:00,
2013-03-13 03:50:00,51.0,43.0,29.99,NNW,338,0.0,1.0,74,0.00,,,0.00,Wunderground v.1.15,2013-03-13 07:50:00,
2013-03-13 03:55:00,50.8,42.8,29.99,NNW,338,0.0,1.0,74,0.00,,,0.00,Wunderground v.1.15,2013-03-13 07:55:00,
2013-03-13 04:00:00,50.8,42.8,30.00,NNW,338,0.0,1.0,74,0.00,,,0.00,Wunderground v.1.15,2013-03-13 08:00:00,
2013-03-13 04:10:00,50.5,42.5,30.00,NNW,338,0.0,0.0,74,0.00,,,0.00,Wunderground v.1.15,2013-03-13 08:10:00,
2013-03-13 04:15:00,50.4,42.4,30.00,NNW,338,0.0,0.0,74,0.00,,,0.00,Wunderground v.1.15,2013-03-13 08:15:00,
2013-03-13 04:25:00,49.9,42.3,30.00,NNW,338,0.0,0.0,75,0.00,,,0.00,Wunderground v.1.15,2013-03-13 08:25:00,
2013-03-13 04:35:00,49.4,42.1,30.00,NNW,338,0.0,0.0,76,0.00,,,0.00,Wunderground v.1.15,2013-03-13 08:35:00,
2013-03-13 04:45:00,48.8,42.2,30.00,NNW,338,0.0,0.0,78,0.00,,,0.00,Wunderground v.1.15,2013-03-13 08:45:00,
2013-03-13 04:50:00,48.5,42.0,30.00,NNW,338,0.0,0.0,78,0.00,,,0.00,Wunderground v.1.15,2013-03-13 08:50:00,
2013-03-13 04:55:00,48.2,42.0,30.00,NNW,338,0.0,0.0,79,0.00,,,0.00,Wunderground v.1.15,2013-03-13 08:55:00,
2013-03-13 05:00:00,47.9,42.0,30.00,NNW,338,0.0,0.0,80,0.00,,,0.00,Wunderground v.1.15,2013-03-13 09:00:00,
2013-03-13 05:05:00,47.7,41.8,30.00,NNW,338,0.0,0.0,80,0.00,,,0.00,Wunderground v.1.15,2013-03-13 09:05:00,
2013-03-13 05:15:00,47.1,41.6,30.01,NNW,338,0.0,0.0,81,0.00,,,0.00,Wunderground v.1.15,2013-03-13 09:15:00,
2013-03-13 05:20:00,47.0,41.5,30.01,NNW,338,0.0,0.0,81,0.00,,,0.00,Wunderground v.1.15,2013-03-13 09:20:00,
2013-03-13 05:30:00,46.5,41.3,30.01,NNW,338,0.0,0.0,82,0.00,,,0.00,Wunderground v.1.15,2013-03-13 09:30:00,
2013-03-13 05:35:00,46.2,41.3,30.01,NNW,338,0.0,0.0,83,0.00,,,0.00,Wunderground v.1.15,2013-03-13 09:35:00,
2013-03-13 05:40:00,46.1,41.5,30.01,NNW,338,0.0,0.0,84,0.00,,,0.00,Wunderground v.1.15,2013-03-13 09:40:00,
2013-03-13 05:45:00,46.0,41.4,30.01,NNW,338,0.0,0.0,84,0.00,,,0.00,Wunderground v.1.15,2013-03-13 09:45:00,
2013-03-13 05:50:00,45.8,41.2,30.01,NNW,338,0.0,0.0,84,0.00,,,0.00,Wunderground v.1.15,2013-03-13 09:50:00,
2013-03-13 06:00:00,45.7,41.4,30.02,NNW,338,0.0,0.0,85,0.00,,,0.00,Wunderground v.1.15,2013-03-13 10:00:00,
2013-03-13 06:05:00,45.5,41.3,30.02,NNW,338,0.0,0.0,85,0.00,,,0.00,Wunderground v.1.15,2013-03-13 10:05:00,
2013-03-13 06:15:00,45.4,41.5,30.03,NNW,338,0.0,0.0,86,0.00,,,0.00,Wunderground v.1.15,2013-03-13 10:15:00,
2013-03-13 06:20:00,45.4,41.5,30.03,NNW,338,0.0,0.0,86,0.00,,,0.00,Wunderground v.1.15,2013-03-13 10:20:00,
2013-03-13 06:25:00,45.4,41.5,30.03,NNW,338,0.0,0.0,86,0.00,,,0.00,Wunderground v.1.15,2013-03-13 10:25:00,
2013-03-13 06:30:00,45.4,41.5,30.03,NNW,338,0.0,0.0,86,0.00,,,0.00,Wunderground v.1.15,2013-03-13 10:30:00,
2013-03-13 06:40:00,46.0,41.4,30.03,NNW,338,0.0,0.0,84,0.00,,,0.00,Wunderground v.1.15,2013-03-13 10:40:00,
2013-03-13 06:45:00,46.1,41.5,30.05,NNW,338,0.0,0.0,84,0.00,,,0.00,Wunderground v.1.15,2013-03-13 10:45:00,
2013-03-13 06:55:00,46.8,41.0,30.05,NNW,338,0.0,0.0,80,0.00,,,0.00,Wunderground v.1.15,2013-03-13 10:55:00,
2013-03-13 07:00:00,47.3,40.8,30.06,NNW,338,0.0,0.0,78,0.00,,,0.00,Wunderground v.1.15,2013-03-13 11:00:00,
2013-03-13 07:05:00,47.6,40.4,30.06,NNW,338,0.0,1.0,76,0.00,,,0.00,Wunderground v.1.15,2013-03-13 11:05:00,
2013-03-13 07:15:00,48.2,40.3,30.06,NNW,338,0.0,1.0,74,0.00,,,0.00,Wunderground v.1.15,2013-03-13 11:15:00,
2013-03-13 07:20:00,48.3,40.0,30.06,NNW,338,0.0,1.0,73,0.00,,,0.00,Wunderground v.1.15,2013-03-13 11:20:00,
2013-03-13 07:25:00,48.3,40.0,30.06,NNW,338,0.0,1.0,73,0.00,,,0.00,Wunderground v.1.15,2013-03-13 11:25:00,
2013-03-13 07:30:00,48.3,40.0,30.07,NNW,338,0.0,1.0,73,0.00,,,0.00,Wunderground v.1.15,2013-03-13 11:30:00,
2013-03-13 07:35:00,48.2,39.9,30.07,NNW,338,0.0,1.0,73,0.00,,,0.00,Wunderground v.1.15,2013-03-13 11:35:00,
2013-03-13 07:45:00,48.2,39.6,30.08,NNW,338,0.0,1.0,72,0.00,,,0.00,Wunderground v.1.15,2013-03-13 11:45:00,
2013-03-13 07:55:00,48.0,39.4,30.08,NNW,338,0.0,1.0,72,0.00,,,0.00,Wunderground v.1.15,2013-03-13 11:55:00,
2013-03-13 08:00:00,47.9,39.3,30.09,NNW,338,0.0,1.0,72,0.00,,,0.00,Wunderground v.1.15,2013-03-13 12:00:00,
2013-03-13 08:05:00,47.7,39.5,30.09,NNW,338,0.0,1.0,73,0.00,,,0.00,Wunderground v.1.15,2013-03-13 12:05:00,
2013-03-13 08:15:00,47.9,39.3,30.09,NNW,338,0.0,0.0,72,0.00,,,0.00,Wunderground v.1.15,2013-03-13 12:15:00,
2013-03-13 08:20:00,48.3,39.7,30.09,NNW,338,0.0,0.0,72,0.00,,,0.00,Wunderground v.1.15,2013-03-13 12:20:00,
2013-03-13 08:25:00,48.8,39.8,30.09,NNW,338,0.0,0.0,71,0.00,,,0.00,Wunderground v.1.15,2013-03-13 12:25:00,
2013-03-13 08:30:00,49.2,39.5,30.09,NNW,343,0.0,0.0,69,0.00,,,0.00,Wunderground v.1.15,2013-03-13 12:30:00,
2013-03-13 08:40:00,50.2,39.7,30.09,North,11,0.0,0.0,67,0.00,,,0.00,Wunderground v.1.15,2013-03-13 12:40:00,
2013-03-13 08:45:00,50.7,39.7,30.10,North,11,0.0,0.0,66,0.00,,,0.00,Wunderground v.1.15,2013-03-13 12:45:00,
2013-03-13 08:55:00,51.4,39.2,30.10,NNE,23,0.0,0.0,63,0.00,,,0.00,Wunderground v.1.15,2013-03-13 12:55:00,
2013-03-13 09:00:00,51.7,39.5,30.11,NNE,16,0.0,1.0,63,0.00,,,0.00,Wunderground v.1.15,2013-03-13 13:00:00,
2013-03-13 09:05:00,52.0,39.4,30.11,NNE,16,1.0,4.0,62,0.00,,,0.00,Wunderground v.1.15,2013-03-13 13:05:00,
2013-03-13 09:15:00,52.5,39.4,30.11,NNE,22,1.0,4.0,61,0.00,,,0.00,Wunderground v.1.15,2013-03-13 13:15:00,
2013-03-13 09:20:00,52.8,38.9,30.11,NNE,29,1.0,7.0,59,0.00,,,0.00,Wunderground v.1.15,2013-03-13 13:20:00,
2013-03-13 09:30:00,53.5,39.1,30.11,North,9,1.0,4.0,58,0.00,,,0.00,Wunderground v.1.15,2013-03-13 13:30:00,
2013-03-13 09:35:00,53.9,39.0,30.11,NNE,22,2.0,4.0,57,0.00,,,0.00,Wunderground v.1.15,2013-03-13 13:35:00,
2013-03-13 09:45:00,54.8,38.0,30.12,NNE,23,2.0,4.0,53,0.00,,,0.00,Wunderground v.1.15,2013-03-13 13:45:00,
2013-03-13 09:50:00,55.3,38.0,30.12,NNE,30,2.0,4.0,52,0.00,,,0.00,Wunderground v.1.15,2013-03-13 13:50:00,
2013-03-13 09:55:00,55.7,37.8,30.12,NNE,19,2.0,4.0,51,0.00,,,0.00,Wunderground v.1.15,2013-03-13 13:55:00,
2013-03-13 10:05:00,56.9,36.9,30.12,NNE,26,1.0,2.0,47,0.00,,,0.00,Wunderground v.1.15,2013-03-13 14:05:00,
2013-03-13 10:15:00,57.5,35.7,30.12,NNE,18,3.0,7.0,44,0.00,,,0.00,Wunderground v.1.15,2013-03-13 14:15:00,
2013-03-13 10:20:00,57.8,35.4,30.12,NNE,17,3.0,7.0,43,0.00,,,0.00,Wunderground v.1.15,2013-03-13 14:20:00,
2013-03-13 10:25:00,58.6,36.2,30.12,NE,35,3.0,7.0,43,0.00,,,0.00,Wunderground v.1.15,2013-03-13 14:25:00,
2013-03-13 10:30:00,59.2,34.9,30.12,NNE,14,1.0,1.0,40,0.00,,,0.00,Wunderground v.1.15,2013-03-13 14:30:00,
2013-03-13 10:40:00,60.1,33.7,30.12,NNE,32,1.0,7.0,37,0.00,,,0.00,Wunderground v.1.15,2013-03-13 14:40:00,
2013-03-13 10:45:00,60.7,32.9,30.12,SSE,157,2.0,7.0,35,0.00,,,0.00,Wunderground v.1.15,2013-03-13 14:45:00,
2013-03-13 10:50:00,61.2,31.8,30.12,NNE,28,2.0,7.0,33,0.00,,,0.00,Wunderground v.1.15,2013-03-13 14:50:00,
2013-03-13 10:55:00,60.9,30.0,30.12,NNE,28,3.0,7.0,31,0.00,,,0.00,Wunderground v.1.15,2013-03-13 14:55:00,
2013-03-13 11:05:00,61.3,31.2,30.12,NNE,24,2.0,9.0,32,0.00,,,0.00,Wunderground v.1.15,2013-03-13 15:05:00,
2013-03-13 11:15:00,62.1,31.1,30.12,NNE,29,2.0,9.0,31,0.00,,,0.00,Wunderground v.1.15,2013-03-13 15:15:00,
2013-03-13 11:20:00,62.6,31.5,30.12,NNE,28,2.0,9.0,31,0.00,,,0.00,Wunderground v.1.15,2013-03-13 15:20:00,
2013-03-13 11:25:00,62.9,31.8,30.12,North,360,1.0,9.0,31,0.00,,,0.00,Wunderground v.1.15,2013-03-13 15:25:00,
2013-03-13 11:30:00,63.4,31.4,30.13,North,360,1.0,9.0,30,0.00,,,0.00,Wunderground v.1.15,2013-03-13 15:30:00,
2013-03-13 11:35:00,63.9,31.8,30.13,North,9,2.0,9.0,30,0.00,,,0.00,Wunderground v.1.15,2013-03-13 15:35:00,
2013-03-13 11:45:00,64.5,30.6,30.13,NNW,345,1.0,9.0,28,0.00,,,0.00,Wunderground v.1.15,2013-03-13 15:45:00,
2013-03-13 11:50:00,64.8,30.0,30.13,NNE,19,1.0,9.0,27,0.00,,,0.00,Wunderground v.1.15,2013-03-13 15:50:00,
2013-03-13 12:00:00,65.6,30.7,30.13,NNE,12,2.0,2.0,27,0.00,,,0.00,Wunderground v.1.15,2013-03-13 16:00:00,
2013-03-13 12:05:00,66.0,30.1,30.13,NE,35,2.0,3.0,26,0.00,,,0.00,Wunderground v.1.15,2013-03-13 16:05:00,
2013-03-13 12:15:00,66.0,29.1,30.12,NNE,17,3.0,3.0,25,0.00,,,0.00,Wunderground v.1.15,2013-03-13 16:15:00,
2013-03-13 12:20:00,65.8,30.9,30.12,NE,44,3.0,3.0,27,0.00,,,0.00,Wunderground v.1.15,2013-03-13 16:20:00,
2013-03-13 12:25:00,66.0,31.0,30.12,NNW,331,2.0,7.0,27,0.00,,,0.00,Wunderground v.1.15,2013-03-13 16:25:00,
2013-03-13 12:30:00,66.6,29.6,30.12,North,360,2.0,2.0,25,0.00,,,0.00,Wunderground v.1.15,2013-03-13 16:30:00,
2013-03-13 12:40:00,67.4,27.2,30.12,North,355,2.0,2.0,22,0.00,,,0.00,Wunderground v.1.15,2013-03-13 16:40:00,
2013-03-13 12:45:00,67.4,27.2,30.12,NNE,30,3.0,4.0,22,0.00,,,0.00,Wunderground v.1.15,2013-03-13 16:45:00,
2013-03-13 12:55:00,68.4,28.0,30.12,North,360,2.0,7.0,22,0.00,,,0.00,Wunderground v.1.15,2013-03-13 16:55:00,
2013-03-13 13:00:00,68.9,27.3,30.12,NE,51,2.0,7.0,21,0.00,,,0.00,Wunderground v.1.15,2013-03-13 17:00:00,
2013-03-13 13:05:00,69.3,27.7,30.12,West,272,2.0,9.0,21,0.00,,,0.00,Wunderground v.1.15,2013-03-13 17:05:00,
2013-03-13 13:14:00,69.9,28.2,30.11,NNE,14,2.0,9.0,21,0.00,,,0.00,Wunderground v.1.15,2013-03-13 17:14:00,
2013-03-13 13:19:00,70.1,28.3,30.11,SSW,211,2.0,9.0,21,0.00,,,0.00,Wunderground v.1.15,2013-03-13 17:19:00,
2013-03-13 13:25:00,70.6,26.3,30.11,NNE,24,3.0,9.0,19,0.00,,,0.00,Wunderground v.1.15,2013-03-13 17:25:00,
2013-03-13 13:30:00,70.9,30.1,30.10,NNW,336,2.0,2.0,22,0.00,,,0.00,Wunderground v.1.15,2013-03-13 17:30:00,
2013-03-13 13:40:00,71.6,27.1,30.10,NNE,22,2.0,2.0,19,0.00,,,0.00,Wunderground v.1.15,2013-03-13 17:40:00,
2013-03-13 13:45:00,71.1,29.2,30.09,West,271,2.0,9.0,21,0.00,,,0.00,Wunderground v.1.15,2013-03-13 17:45:00,
2013-03-13 13:50:00,72.1,27.5,30.09,North,10,2.0,2.0,19,0.00,,,0.00,Wunderground v.1.15,2013-03-13 17:50:00,
2013-03-13 13:55:00,72.1,27.5,30.09,WSW,252,3.0,5.0,19,0.00,,,0.00,Wunderground v.1.15,2013-03-13 17:55:00,
2013-03-13 14:00:00,72.1,26.2,30.09,NNE,20,3.0,3.0,18,0.00,,,0.00,Wunderground v.1.15,2013-03-13 18:00:00,
2013-03-13 14:05:00,72.1,27.5,30.09,NNE,24,2.0,9.0,19,0.00,,,0.00,Wunderground v.1.15,2013-03-13 18:05:00,
2013-03-13 14:15:00,72.5,26.5,30.08,NE,54,3.0,3.0,18,0.00,,,0.00,Wunderground v.1.15,2013-03-13 18:15:00,
2013-03-13 14:25:00,73.0,25.6,30.08,NNE,32,2.0,9.0,17,0.00,,,0.00,Wunderground v.1.15,2013-03-13 18:25:00,
2013-03-13 14:35:00,74.2,26.5,30.07,NNW,347,1.0,1.0,17,0.00,,,0.00,Wunderground v.1.15,2013-03-13 18:35:00,
2013-03-13 14:45:00,74.4,28.1,30.06,NE,40,1.0,9.0,18,0.00,,,0.00,Wunderground v.1.15,2013-03-13 18:45:00,
2013-03-13 14:50:00,74.0,26.4,30.06,NNE,15,1.0,9.0,17,0.00,,,0.00,Wunderground v.1.15,2013-03-13 18:50:00,
2013-03-13 15:00:00,73.5,26.0,30.06,SSE,150,1.0,1.0,17,0.00,,,0.00,Wunderground v.1.15,2013-03-13 19:00:00,
2013-03-13 15:05:00,74.0,26.4,30.06,WSW,250,1.0,2.0,17,0.00,,,0.00,Wunderground v.1.15,2013-03-13 19:05:00,
2013-03-13 15:15:00,74.6,28.3,30.05,NE,36,2.0,6.0,18,0.00,,,0.00,Wunderground v.1.15,2013-03-13 19:15:00,
2013-03-13 15:20:00,74.6,26.9,30.05,NE,47,2.0,2.0,17,0.00,,,0.00,Wunderground v.1.15,2013-03-13 19:20:00,
2013-03-13 15:26:00,75.1,27.3,30.05,West,267,2.0,6.0,17,0.00,,,0.00,Wunderground v.1.15,2013-03-13 19:26:00,
2013-03-13 15:35:00,74.6,26.9,30.04,NNE,24,2.0,5.0,17,0.00,,,0.00,Wunderground v.1.15,2013-03-13 19:35:00,
2013-03-13 15:40:00,74.7,27.0,30.04,WNW,298,2.0,2.0,17,0.00,,,0.00,Wunderground v.1.15,2013-03-13 19:40:00,
2013-03-13 15:50:00,76.1,26.6,30.03,West,278,1.0,1.0,16,0.00,,,0.00,Wunderground v.1.15,2013-03-13 19:50:00,
2013-03-13 16:00:00,75.4,26.1,30.03,WSW,257,2.0,6.0,16,0.00,,,0.00,Wunderground v.1.15,2013-03-13 20:00:00,
2013-03-13 16:05:00,75.6,27.7,30.03,WSW,241,1.0,9.0,17,0.00,,,0.00,Wunderground v.1.15,2013-03-13 20:05:00,
2013-03-13 16:15:00,76.7,27.1,30.03,West,269,1.0,9.0,16,0.00,,,0.00,Wunderground v.1.15,2013-03-13 20:15:00,
2013-03-13 16:25:00,75.1,27.3,30.03,North,11,2.0,9.0,17,0.00,,,0.00,Wunderground v.1.15,2013-03-13 20:25:00,
2013-03-13 16:35:00,74.4,26.7,30.02,NNE,27,1.0,9.0,17,0.00,,,0.00,Wunderground v.1.15,2013-03-13 20:35:00,
2013-03-13 16:45:00,74.4,26.7,30.01,NNE,13,1.0,9.0,17,0.00,,,0.00,Wunderground v.1.15,2013-03-13 20:45:00,
2013-03-13 16:50:00,74.4,26.7,30.01,WSW,254,1.0,1.0,17,0.00,,,0.00,Wunderground v.1.15,2013-03-13 20:50:00,
2013-03-13 16:55:00,74.4,26.7,30.01,WNW,289,1.0,9.0,17,0.00,,,0.00,Wunderground v.1.15,2013-03-13 20:55:00,
2013-03-13 17:05:00,74.2,26.5,30.01,NNE,15,2.0,9.0,17,0.00,,,0.00,Wunderground v.1.15,2013-03-13 21:05:00,
2013-03-13 17:15:00,73.2,27.1,30.01,NNE,22,2.0,9.0,18,0.00,,,0.00,Wunderground v.1.15,2013-03-13 21:15:00,
2013-03-13 17:20:00,73.2,27.1,30.01,ENE,76,1.0,1.0,18,0.00,,,0.00,Wunderground v.1.15,2013-03-13 21:20:00,
2013-03-13 17:30:00,73.3,27.2,30.01,West,269,0.0,9.0,18,0.00,,,0.00,Wunderground v.1.15,2013-03-13 21:30:00,
2013-03-13 17:40:00,73.5,27.4,30.01,West,271,1.0,1.0,18,0.00,,,0.00,Wunderground v.1.15,2013-03-13 21:40:00,
2013-03-13 17:45:00,73.3,27.2,30.01,North,5,1.0,9.0,18,0.00,,,0.00,Wunderground v.1.15,2013-03-13 21:45:00,
2013-03-13 17:55:00,73.0,27.0,30.01,NNE,26,2.0,2.0,18,0.00,,,0.00,Wunderground v.1.15,2013-03-13 21:55:00,
2013-03-13 18:05:00,72.8,26.8,30.01,SW,234,0.0,9.0,18,0.00,,,0.00,Wunderground v.1.15,2013-03-13 22:05:00,
2013-03-13 18:15:00,72.7,28.0,30.01,NW,308,0.0,7.0,19,0.00,,,0.00,Wunderground v.1.15,2013-03-13 22:15:00,
2013-03-13 18:20:00,72.3,27.7,30.01,North,350,0.0,7.0,19,0.00,,,0.00,Wunderground v.1.15,2013-03-13 22:20:00,
2013-03-13 18:30:00,71.6,28.4,30.01,North,355,0.0,7.0,20,0.00,,,0.00,Wunderground v.1.15,2013-03-13 22:30:00,
2013-03-13 18:40:00,71.3,28.1,30.01,West,265,0.0,7.0,20,0.00,,,0.00,Wunderground v.1.15,2013-03-13 22:40:00,
2013-03-13 18:50:00,70.4,27.4,30.01,NNE,27,1.0,1.0,20,0.00,,,0.00,Wunderground v.1.15,2013-03-13 22:50:00,
2013-03-13 19:00:00,69.6,27.9,30.01,NNE,22,0.0,7.0,21,0.00,,,0.00,Wunderground v.1.15,2013-03-13 23:00:00,
2013-03-13 19:05:00,69.3,27.7,30.01,NNE,22,0.0,7.0,21,0.00,,,0.00,Wunderground v.1.15,2013-03-13 23:05:00,
2013-03-13 19:15:00,68.6,29.3,30.02,NNE,22,0.0,5.0,23,0.00,,,0.00,Wunderground v.1.15,2013-03-13 23:15:00,
2013-03-13 19:25:00,67.8,29.7,30.02,WSW,238,0.0,5.0,24,0.00,,,0.00,Wunderground v.1.15,2013-03-13 23:25:00,
2013-03-13 19:30:00,67.4,34.9,30.03,WSW,247,0.0,5.0,30,0.00,,,0.00,Wunderground v.1.15,2013-03-13 23:30:00,
2013-03-13 19:35:00,66.9,36.8,30.03,WSW,247,0.0,5.0,33,0.00,,,0.00,Wunderground v.1.15,2013-03-13 23:35:00,
2013-03-13 19:45:00,65.6,38.6,30.03,WSW,248,0.0,5.0,37,0.00,,,0.00,Wunderground v.1.15,2013-03-13 23:45:00,
2013-03-13 19:55:00,64.3,39.4,30.03,West,264,1.0,5.0,40,0.00,,,0.00,Wunderground v.1.15,2013-03-13 23:55:00,
2013-03-13 20:00:00,63.9,39.7,30.04,WSW,252,0.0,5.0,41,0.00,,,0.00,Wunderground v.1.15,2013-03-14 00:00:00,
2013-03-13 20:05:00,63.4,39.9,30.04,WNW,292,0.0,5.0,42,0.00,,,0.00,Wunderground v.1.15,2013-03-14 00:05:00,
2013-03-13 20:15:00,62.6,39.8,30.05,WNW,292,0.0,5.0,43,0.00,,,0.00,Wunderground v.1.15,2013-03-14 00:15:00,
2013-03-13 20:20:00,62.1,40.5,30.05,WSW,248,0.0,5.0,45,0.00,,,0.00,Wunderground v.1.15,2013-03-14 00:20:00,
2013-03-13 20:30:00,61.3,40.3,30.05,WSW,248,0.0,5.0,46,0.00,,,0.00,Wunderground v.1.15,2013-03-14 00:30:00,
2013-03-13 20:35:00,61.0,40.6,30.05,SSW,213,0.0,5.0,47,0.00,,,0.00,Wunderground v.1.15,2013-03-14 00:35:00,
2013-03-13 20:40:00,60.7,40.3,30.05,SSW,213,0.0,5.0,47,0.00,,,0.00,Wunderground v.1.15,2013-03-14 00:40:00,
2013-03-13 20:50:00,59.9,40.7,30.06,SSW,213,0.0,5.0,49,0.00,,,0.00,Wunderground v.1.15,2013-03-14 00:50:00,
2013-03-13 21:00:00,59.5,40.8,30.06,SSW,213,0.0,5.0,50,0.00,,,0.00,Wunderground v.1.15,2013-03-14 01:00:00,
2013-03-13 21:05:00,59.2,41.1,30.06,SSW,213,0.0,5.0,51,0.00,,,0.00,Wunderground v.1.15,2013-03-14 01:05:00,
2013-03-13 21:15:00,58.7,40.6,30.08,SSW,213,0.0,4.0,51,0.00,,,0.00,Wunderground v.1.15,2013-03-14 01:15:00,
2013-03-13 21:20:00,58.6,41.0,30.08,SSW,213,0.0,4.0,52,0.00,,,0.00,Wunderground v.1.15,2013-03-14 01:20:00,
2013-03-13 21:30:00,58.0,41.0,30.08,SSW,213,0.0,4.0,53,0.00,,,0.00,Wunderground v.1.15,2013-03-14 01:30:00,
2013-03-13 21:40:00,57.3,40.3,30.08,SW,215,0.0,4.0,53,0.00,,,0.00,Wunderground v.1.15,2013-03-14 01:40:00,
2013-03-13 21:50:00,57.0,40.0,30.09,SW,215,0.0,4.0,53,0.00,,,0.00,Wunderground v.1.15,2013-03-14 01:50:00,
2013-03-13 22:00:00,56.9,39.9,30.09,SW,215,0.0,4.0,53,0.00,,,0.00,Wunderground v.1.15,2013-03-14 02:00:00,
2013-03-13 22:05:00,56.7,39.7,30.09,SW,215,0.0,4.0,53,0.00,,,0.00,Wunderground v.1.15,2013-03-14 02:05:00,
2013-03-13 22:15:00,56.5,39.6,30.10,SW,215,0.0,2.0,53,0.00,,,0.00,Wunderground v.1.15,2013-03-14 02:15:00,
2013-03-13 22:25:00,56.2,39.3,30.10,SW,215,0.0,2.0,53,0.00,,,0.00,Wunderground v.1.15,2013-03-14 02:25:00,
2013-03-13 22:30:00,55.9,39.0,30.11,SW,215,0.0,2.0,53,0.00,,,0.00,Wunderground v.1.15,2013-03-14 02:30:00,
2013-03-13 22:40:00,55.7,39.3,30.11,West,259,0.0,2.0,54,0.00,,,0.00,Wunderground v.1.15,2013-03-14 02:40:00,
2013-03-13 22:50:00,55.3,38.9,30.11,West,259,0.0,2.0,54,0.00,,,0.00,Wunderground v.1.15,2013-03-14 02:50:00,
2013-03-13 22:55:00,55.1,39.2,30.11,West,259,0.0,2.0,55,0.00,,,0.00,Wunderground v.1.15,2013-03-14 02:55:00,
2013-03-13 23:05:00,54.8,39.4,30.12,West,259,0.0,2.0,56,0.00,,,0.00,Wunderground v.1.15,2013-03-14 03:05:00,
2013-03-13 23:15:00,54.8,39.4,30.12,West,259,0.0,1.0,56,0.00,,,0.00,Wunderground v.1.15,2013-03-14 03:15:00,
2013-03-13 23:25:00,54.7,39.8,30.12,West,259,0.0,1.0,57,0.00,,,0.00,Wunderground v.1.15,2013-03-14 03:25:00,
2013-03-13 23:35:00,54.5,40.0,30.12,West,259,0.0,1.0,58,0.00,,,0.00,Wunderground v.1.15,2013-03-14 03:35:00,
2013-03-13 23:45:00,54.5,40.5,30.13,West,259,0.0,1.0,59,0.00,,,0.00,Wunderground v.1.15,2013-03-14 03:45:00,
2013-03-13 23:55:00,54.4,40.4,30.13,West,259,0.0,1.0,59,0.00,,,0.00,Wunderground v.1.15,2013-03-14 03:55:00,